Time;durP1;ratioP1;P1;durP2;ratioP2;P2;SDS_P1;SDS_P2;PMS_P1;PMS_P2;Temp;Humidity;BMP_temperature;BMP_pressure;BME280_temperature;BME280_humidity;BME280_pressure;Samples;Min_cycle;Max_cycle;Signal;HPM_P1;HPM_P2
2023/08/17 00:01:33;;;;;;;0.10;0.10;;;14.00;60.00;;;;;;5073990;28;20186;-58
2023/08/17 00:04:03;;;;;;;0.10;0.10;;;14.10;60.00;;;;;;5073692;28;20471;-59
2023/08/17 00:06:34;;;;;;;0.10;0.10;;;14.10;59.70;;;;;;5072721;28;20222;-59
2023/08/17 00:09:05;;;;;;;0.10;0.10;;;14.20;59.60;;;;;;5073483;28;20195;-59
2023/08/17 00:11:38;;;;;;;0.10;0.10;;;14.20;59.40;;;;;;5072840;28;20195;-59
2023/08/17 00:14:10;;;;;;;0.20;0.20;;;14.30;59.30;;;;;;5073095;28;20565;-60
2023/08/17 00:16:41;;;;;;;0.10;0.10;;;14.30;59.10;;;;;;5072754;28;20301;-59
2023/08/17 00:19:12;;;;;;;0.10;0.10;;;14.40;59.00;;;;;;5072865;28;20201;-60
2023/08/17 00:21:42;;;;;;;0.10;0.10;;;14.40;58.90;;;;;;5073216;28;20202;-60
2023/08/17 00:24:13;;;;;;;0.10;0.10;;;14.40;58.80;;;;;;5072380;28;20199;-59
2023/08/17 00:26:45;;;;;;;0.10;0.10;;;14.40;58.90;;;;;;5072905;28;20214;-59
2023/08/17 00:29:17;;;;;;;0.00;0.00;;;14.50;59.10;;;;;;5072782;28;20546;-59
2023/08/17 00:31:47;;;;;;;0.10;0.10;;;14.50;59.00;;;;;;5072999;28;20286;-61
2023/08/17 00:34:18;;;;;;;0.10;0.10;;;14.50;58.90;;;;;;5072903;28;20517;-60
2023/08/17 00:36:48;;;;;;;0.10;0.10;;;14.60;58.90;;;;;;5073176;28;20230;-60
2023/08/17 00:39:19;;;;;;;0.10;0.10;;;14.60;58.80;;;;;;5072799;28;20199;-61
2023/08/17 00:41:52;;;;;;;0.10;0.10;;;14.60;58.70;;;;;;5070326;28;20746;-60
2023/08/17 00:44:23;;;;;;;0.10;0.10;;;14.70;58.70;;;;;;5052922;28;20196;-60
2023/08/17 00:46:53;;;;;;;0.10;0.10;;;14.70;58.60;;;;;;5072061;28;20222;-59
2023/08/17 00:49:24;;;;;;;0.10;0.10;;;14.70;58.60;;;;;;5071991;28;20240;-59
2023/08/17 00:51:55;;;;;;;0.10;0.10;;;14.80;58.50;;;;;;5071907;28;20191;-60
2023/08/17 00:54:29;;;;;;;0.10;0.10;;;14.80;58.50;;;;;;5071865;28;20230;-60
2023/08/17 00:57:06;;;;;;;0.10;0.10;;;14.80;58.40;;;;;;5072396;28;20221;-60
2023/08/17 00:59:37;;;;;;;0.05;0.05;;;14.90;58.30;;;;;;5072522;28;20666;-60
2023/08/17 01:02:09;;;;;;;0.10;0.10;;;14.90;58.30;;;;;;5090639;28;20654;-60
2023/08/17 01:04:40;;;;;;;0.10;0.10;;;14.90;58.40;;;;;;5093049;28;20602;-60
2023/08/17 01:07:10;;;;;;;0.10;0.10;;;14.90;58.40;;;;;;5078535;28;20222;-60
2023/08/17 01:09:41;;;;;;;0.10;0.10;;;14.90;58.40;;;;;;5071789;28;20209;-60
2023/08/17 01:12:26;;;;;;;0.10;0.10;;;14.90;58.40;;;;;;5051971;28;20207;-59
2023/08/17 01:15:03;;;;;;;0.10;0.10;;;15.00;58.50;;;;;;5053145;28;20227;-60
2023/08/17 01:17:41;;;;;;;0.10;0.10;;;15.00;58.40;;;;;;5071338;28;20214;-60
2023/08/17 01:20:13;;;;;;;0.10;0.10;;;15.00;58.40;;;;;;5071093;28;20556;-59
2023/08/17 01:22:47;;;;;;;0.10;0.10;;;15.10;58.50;;;;;;5071951;28;20234;-59
2023/08/17 01:25:20;;;;;;;0.10;0.10;;;15.10;58.40;;;;;;5072455;28;20202;-60
2023/08/17 01:27:51;;;;;;;0.03;0.03;;;15.10;58.30;;;;;;5073039;28;20587;-60
2023/08/17 01:30:22;;;;;;;0.00;0.00;;;15.10;58.30;;;;;;5072295;28;20202;-59
2023/08/17 01:33:01;;;;;;;0.00;0.00;;;15.20;58.40;;;;;;5072243;28;20217;-60
2023/08/17 01:35:36;;;;;;;0.10;0.10;;;15.20;58.40;;;;;;5071785;28;20272;-60
2023/08/17 01:38:14;;;;;;;0.00;0.00;;;15.20;58.40;;;;;;5072064;28;20250;-59
2023/08/17 01:40:47;;;;;;;0.03;0.03;;;15.20;58.40;;;;;;5072094;28;20199;-60
2023/08/17 01:43:18;;;;;;;0.00;0.00;;;15.30;58.50;;;;;;5071915;28;20199;-60
2023/08/17 01:45:49;;;;;;;0.10;0.10;;;15.30;58.40;;;;;;5072229;28;20229;-60
2023/08/17 01:48:20;;;;;;;0.10;0.10;;;15.30;58.50;;;;;;5071796;28;20298;-60
2023/08/17 01:50:51;;;;;;;0.10;0.10;;;15.40;58.50;;;;;;5071719;28;20199;-59
2023/08/17 01:53:21;;;;;;;0.05;0.05;;;15.40;58.40;;;;;;5071634;28;20203;-59
2023/08/17 01:55:54;;;;;;;0.08;0.08;;;15.40;58.40;;;;;;5071989;28;20226;-59
2023/08/17 01:58:24;;;;;;;0.08;0.08;;;15.50;58.40;;;;;;5071890;28;20244;-59
2023/08/17 02:00:55;;;;;;;0.00;0.00;;;15.50;58.40;;;;;;5071713;28;20195;-59
2023/08/17 02:03:27;;;;;;;0.00;0.00;;;15.50;58.40;;;;;;5071970;28;20194;-59
2023/08/17 02:05:59;;;;;;;0.10;0.10;;;15.60;58.40;;;;;;5071764;28;20747;-60
2023/08/17 02:08:30;;;;;;;0.10;0.10;;;15.60;58.40;;;;;;5071875;28;20569;-59
2023/08/17 02:11:02;;;;;;;0.00;0.00;;;15.60;58.30;;;;;;5071482;28;20194;-59
2023/08/17 02:13:33;;;;;;;0.10;0.10;;;15.60;58.30;;;;;;5071274;28;20198;-59
2023/08/17 02:16:03;;;;;;;0.10;0.10;;;15.70;58.20;;;;;;5071453;28;20245;-59
2023/08/17 02:18:34;;;;;;;0.10;0.10;;;15.70;58.10;;;;;;5071394;28;20297;-60
2023/08/17 02:21:05;;;;;;;0.10;0.10;;;15.70;58.10;;;;;;5071283;28;20229;-59
2023/08/17 02:23:36;;;;;;;0.10;0.10;;;15.70;58.10;;;;;;5071290;28;20206;-60
2023/08/17 02:26:08;;;;;;;0.10;0.10;;;15.80;58.10;;;;;;5071196;28;20199;-60
2023/08/17 02:28:39;;;;;;;0.10;0.10;;;15.80;58.00;;;;;;5071354;28;20199;-59
2023/08/17 02:31:09;;;;;;;0.08;0.08;;;15.80;58.00;;;;;;5070885;28;20669;-60
2023/08/17 02:33:40;;;;;;;0.10;0.10;;;15.90;58.00;;;;;;5070906;28;20194;-59
2023/08/17 02:36:10;;;;;;;0.10;0.10;;;15.90;57.90;;;;;;5071100;28;20230;-60
2023/08/17 02:38:41;;;;;;;0.10;0.10;;;15.90;57.90;;;;;;5056261;28;20195;-59
2023/08/17 02:41:14;;;;;;;0.10;0.10;;;16.00;58.20;;;;;;5051525;28;20187;-60
2023/08/17 02:43:44;;;;;;;0.00;0.00;;;16.00;57.90;;;;;;5050979;28;20196;-60
2023/08/17 02:46:15;;;;;;;0.00;0.00;;;16.00;57.90;;;;;;5050603;28;20211;-61
2023/08/17 02:48:46;;;;;;;0.05;0.05;;;16.00;57.80;;;;;;5061516;28;20521;-58
2023/08/17 02:51:16;;;;;;;0.10;0.10;;;16.10;57.80;;;;;;5071158;28;20226;-60
2023/08/17 02:53:47;;;;;;;0.10;0.10;;;16.10;57.80;;;;;;5070967;28;20682;-60
2023/08/17 02:56:19;;;;;;;0.03;0.03;;;16.10;57.80;;;;;;5070630;28;20226;-59
2023/08/17 02:58:50;;;;;;;0.00;0.00;;;16.20;57.80;;;;;;5070622;28;20198;-61
2023/08/17 03:01:21;;;;;;;0.10;0.10;;;16.20;57.70;;;;;;5071208;28;20225;-59
2023/08/17 03:03:51;;;;;;;0.00;0.00;;;16.20;57.70;;;;;;5070718;28;20187;-60
2023/08/17 03:06:22;;;;;;;0.10;0.10;;;16.30;57.80;;;;;;5070758;28;20199;-59
2023/08/17 03:08:53;;;;;;;0.05;0.05;;;16.30;57.70;;;;;;5070509;28;20589;-60
2023/08/17 03:11:26;;;;;;;0.10;0.10;;;16.30;57.60;;;;;;5071331;28;20211;-60
2023/08/17 03:13:59;;;;;;;0.10;0.10;;;16.40;57.80;;;;;;5068274;28;20205;-59
2023/08/17 03:16:30;;;;;;;0.00;0.00;;;16.40;57.80;;;;;;5069863;28;20280;-60
2023/08/17 03:19:01;;;;;;;0.00;0.00;;;16.50;57.70;;;;;;5070423;28;20277;-60
2023/08/17 03:21:32;;;;;;;0.00;0.00;;;16.50;57.60;;;;;;5070559;28;20202;-59
2023/08/17 03:24:02;;;;;;;0.10;0.10;;;16.50;57.60;;;;;;5070297;28;20203;-60
2023/08/17 03:26:35;;;;;;;0.00;0.00;;;16.50;57.50;;;;;;5072962;28;20669;-61
2023/08/17 03:29:05;;;;;;;0.10;0.10;;;16.60;57.40;;;;;;5054381;28;20206;-59
2023/08/17 03:31:36;;;;;;;0.00;0.00;;;16.60;57.40;;;;;;5067343;28;20213;-60
2023/08/17 03:34:07;;;;;;;0.05;0.05;;;16.60;57.30;;;;;;5073896;28;20202;-59
2023/08/17 03:36:37;;;;;;;0.10;0.10;;;16.60;57.30;;;;;;5074094;28;20222;-60
2023/08/17 03:39:08;;;;;;;0.10;0.10;;;16.70;57.20;;;;;;5074179;28;20214;-60
2023/08/17 03:41:41;;;;;;;0.10;0.10;;;16.70;57.10;;;;;;5074381;28;20190;-60
2023/08/17 03:44:13;;;;;;;0.00;0.00;;;16.70;57.00;;;;;;5052952;28;20207;-60
2023/08/17 03:46:46;;;;;;;0.10;0.10;;;16.80;56.90;;;;;;5054451;28;20231;-60
2023/08/17 03:49:16;;;;;;;0.10;0.10;;;16.80;56.80;;;;;;5073159;28;20194;-59
2023/08/17 03:51:47;;;;;;;0.10;0.10;;;16.80;56.80;;;;;;5073005;28;20199;-59
2023/08/17 03:54:17;;;;;;;0.00;0.00;;;16.80;56.60;;;;;;5073017;28;20191;-60
2023/08/17 03:56:50;;;;;;;0.10;0.10;;;16.80;56.60;;;;;;5072591;28;20231;-59
2023/08/17 03:59:21;;;;;;;0.10;0.10;;;16.90;56.70;;;;;;5073628;28;20203;-60
2023/08/17 04:01:53;;;;;;;0.10;0.10;;;16.90;56.60;;;;;;5072945;28;20206;-60
2023/08/17 04:04:24;;;;;;;0.10;0.10;;;16.90;56.60;;;;;;5073140;28;20198;-60
2023/08/17 04:06:54;;;;;;;0.10;0.10;;;16.90;56.50;;;;;;5073025;28;20218;-59
2023/08/17 04:09:25;;;;;;;0.10;0.10;;;16.90;56.40;;;;;;5073062;28;20654;-60
2023/08/17 04:11:57;;;;;;;0.10;0.10;;;17.00;56.40;;;;;;5073157;28;20240;-60
2023/08/17 04:14:28;;;;;;;0.10;0.10;;;17.00;56.90;;;;;;5073450;28;20187;-59
2023/08/17 04:16:59;;;;;;;0.05;0.05;;;17.00;56.30;;;;;;5072545;28;20222;-59
2023/08/17 04:19:29;;;;;;;0.00;0.00;;;17.00;56.20;;;;;;5073108;28;20187;-60
2023/08/17 04:22:00;;;;;;;0.00;0.00;;;17.10;56.20;;;;;;5073228;28;20575;-60
2023/08/17 04:24:31;;;;;;;0.00;0.00;;;17.10;56.10;;;;;;5076610;28;20320;-61
2023/08/17 04:27:03;;;;;;;0.05;0.05;;;17.10;56.00;;;;;;5073165;28;20271;-60
2023/08/17 04:29:34;;;;;;;0.00;0.00;;;17.10;55.90;;;;;;5072855;28;20213;-60
2023/08/17 04:32:05;;;;;;;0.10;0.10;;;17.10;55.90;;;;;;5072593;28;20449;-59
2023/08/17 04:34:36;;;;;;;0.00;0.00;;;17.20;56.00;;;;;;5072192;28;20669;-60
2023/08/17 04:37:06;;;;;;;0.05;0.05;;;17.20;55.80;;;;;;5054845;28;20223;-59
2023/08/17 04:39:37;;;;;;;0.08;0.08;;;17.20;55.80;;;;;;5053222;28;20703;-60
2023/08/17 04:42:10;;;;;;;0.10;0.10;;;17.20;55.70;;;;;;5053308;28;20196;-61
2023/08/17 04:44:40;;;;;;;0.00;0.00;;;17.20;55.70;;;;;;5053461;28;20241;-61
2023/08/17 04:47:11;;;;;;;0.00;0.00;;;17.20;55.70;;;;;;5053521;28;20231;-59
2023/08/17 04:49:42;;;;;;;0.00;0.00;;;17.30;55.60;;;;;;5061372;28;20194;-60
2023/08/17 04:52:12;;;;;;;0.00;0.00;;;17.30;55.60;;;;;;5072983;28;20206;-59
2023/08/17 04:54:43;;;;;;;0.10;0.10;;;17.30;55.50;;;;;;5068529;28;20199;-60
2023/08/17 04:57:16;;;;;;;0.05;0.05;;;17.30;55.50;;;;;;5071426;28;20222;-60
2023/08/17 04:59:46;;;;;;;0.10;0.10;;;17.30;55.40;;;;;;5072609;28;20190;-60
2023/08/17 05:02:17;;;;;;;0.10;0.10;;;17.30;55.40;;;;;;5071895;28;20234;-61
2023/08/17 05:04:48;;;;;;;0.00;0.00;;;17.30;55.40;;;;;;5071722;28;20198;-60
2023/08/17 05:07:19;;;;;;;0.00;0.00;;;17.30;55.40;;;;;;5072653;28;20237;-59
2023/08/17 05:09:49;;;;;;;0.00;0.00;;;17.40;55.40;;;;;;5071893;28;20194;-60
2023/08/17 05:12:22;;;;;;;0.10;0.10;;;17.40;55.90;;;;;;5070713;28;20297;-60
2023/08/17 05:14:53;;;;;;;0.00;0.00;;;17.40;55.30;;;;;;5088941;28;20649;-60
2023/08/17 05:17:23;;;;;;;0.10;0.10;;;17.40;55.30;;;;;;5092125;28;20218;-59
2023/08/17 05:19:54;;;;;;;0.00;0.00;;;17.40;55.40;;;;;;5079544;28;20199;-60
2023/08/17 05:22:24;;;;;;;0.10;0.10;;;17.40;55.30;;;;;;5071788;28;20199;-59
2023/08/17 05:24:55;;;;;;;0.10;0.10;;;17.40;55.30;;;;;;5071624;28;20217;-60
2023/08/17 05:27:28;;;;;;;0.00;0.00;;;17.40;55.10;;;;;;5071674;28;20215;-59
2023/08/17 05:29:58;;;;;;;0.00;0.00;;;17.40;55.10;;;;;;5071392;28;20398;-60
2023/08/17 05:32:29;;;;;;;0.00;0.00;;;17.40;55.10;;;;;;5071262;28;20228;-60
2023/08/17 05:35:00;;;;;;;0.00;0.00;;;17.40;55.10;;;;;;5071311;28;20651;-60
2023/08/17 05:37:31;;;;;;;0.00;0.00;;;17.40;55.10;;;;;;5071230;28;20214;-60
2023/08/17 05:40:02;;;;;;;0.10;0.10;;;17.40;55.10;;;;;;5088989;28;20205;-60
2023/08/17 05:42:34;;;;;;;0.00;0.00;;;17.40;55.10;;;;;;5091171;28;20552;-59
2023/08/17 05:45:05;;;;;;;0.00;0.00;;;17.40;55.10;;;;;;5074669;28;20772;-60
2023/08/17 05:47:36;;;;;;;0.05;0.05;;;17.40;55.10;;;;;;5071240;28;20218;-60
2023/08/17 05:50:06;;;;;;;0.03;0.03;;;17.40;55.00;;;;;;5071264;28;20604;-60
2023/08/17 05:52:37;;;;;;;0.03;0.03;;;17.40;54.80;;;;;;5070739;28;20220;-60
2023/08/17 05:55:08;;;;;;;0.10;0.10;;;17.40;54.70;;;;;;5071497;28;20195;-60
2023/08/17 05:57:40;;;;;;;0.03;0.03;;;17.30;54.60;;;;;;5071064;28;20639;-60
2023/08/17 06:00:12;;;;;;;0.00;0.00;;;17.30;54.50;;;;;;5070540;28;20195;-59
2023/08/17 06:02:43;;;;;;;0.10;0.10;;;17.30;54.40;;;;;;5071645;28;20199;-60
2023/08/17 06:05:14;;;;;;;0.10;0.10;;;17.30;54.40;;;;;;5070413;28;20598;-60
2023/08/17 06:07:44;;;;;;;0.05;0.05;;;17.30;54.30;;;;;;5071441;28;20211;-59
2023/08/17 06:10:15;;;;;;;0.00;0.00;;;17.20;54.30;;;;;;5071194;28;20278;-60
2023/08/17 06:12:48;;;;;;;0.00;0.00;;;17.20;54.30;;;;;;5071250;28;20245;-59
2023/08/17 06:15:19;;;;;;;0.10;0.10;;;17.20;54.30;;;;;;5088752;28;20209;-60
2023/08/17 06:17:50;;;;;;;0.10;0.10;;;17.20;54.20;;;;;;5091610;28;20221;-59
2023/08/17 06:20:21;;;;;;;0.10;0.10;;;17.20;54.30;;;;;;5091114;28;20616;-60
2023/08/17 06:22:52;;;;;;;0.00;0.00;;;17.20;54.20;;;;;;5089024;28;20230;-59
2023/08/17 06:25:22;;;;;;;0.00;0.00;;;17.20;54.20;;;;;;5070877;28;20197;-59
2023/08/17 06:27:55;;;;;;;0.00;0.00;;;17.10;54.20;;;;;;5069629;28;20725;-59
2023/08/17 06:30:26;;;;;;;0.10;0.10;;;17.10;54.10;;;;;;5061724;28;20210;-59
2023/08/17 06:32:57;;;;;;;0.10;0.10;;;17.10;54.20;;;;;;5061619;28;20203;-60
2023/08/17 06:35:27;;;;;;;0.03;0.03;;;17.10;54.20;;;;;;5068127;28;20246;-60
2023/08/17 06:37:58;;;;;;;0.13;0.13;;;17.10;54.10;;;;;;5050937;28;20223;-59
2023/08/17 06:40:28;;;;;;;0.10;0.10;;;17.10;54.20;;;;;;5068516;28;20202;-59
2023/08/17 06:43:01;;;;;;;0.00;0.00;;;17.00;54.10;;;;;;5062767;28;20202;-59
2023/08/17 06:45:33;;;;;;;0.10;0.10;;;17.00;54.10;;;;;;5069399;28;20205;-59
2023/08/17 06:48:04;;;;;;;0.10;0.10;;;17.00;54.10;;;;;;5070246;28;20210;-59
2023/08/17 06:50:34;;;;;;;0.00;0.00;;;17.00;54.10;;;;;;5070410;28;20186;-59
2023/08/17 06:53:05;;;;;;;0.10;0.10;;;16.90;54.00;;;;;;5070733;28;20203;-59
2023/08/17 06:55:36;;;;;;;0.00;0.00;;;16.90;54.00;;;;;;5069883;28;20191;-59
2023/08/17 06:58:08;;;;;;;0.10;0.10;;;16.90;54.00;;;;;;5069991;28;20230;-59
2023/08/17 07:00:40;;;;;;;0.10;0.10;;;16.90;54.10;;;;;;5071887;28;20194;-59
2023/08/17 07:03:11;;;;;;;0.00;0.00;;;16.80;54.00;;;;;;5074022;28;20199;-59
2023/08/17 07:05:42;;;;;;;0.00;0.00;;;16.80;54.00;;;;;;5074813;28;20213;-59
2023/08/17 07:08:13;;;;;;;0.00;0.00;;;16.80;54.00;;;;;;5073492;28;20230;-59
2023/08/17 07:10:43;;;;;;;0.00;0.00;;;16.80;54.00;;;;;;5074158;28;20228;-59
2023/08/17 07:13:16;;;;;;;0.00;0.00;;;16.80;54.10;;;;;;5073085;28;20195;-59
2023/08/17 07:15:46;;;;;;;0.00;0.00;;;16.80;54.00;;;;;;5072956;28;20199;-59
2023/08/17 07:18:17;;;;;;;0.00;0.00;;;16.70;54.00;;;;;;5073987;28;20211;-59
2023/08/17 07:20:49;;;;;;;0.10;0.10;;;16.70;54.00;;;;;;5074018;28;20198;-59
2023/08/17 07:23:19;;;;;;;0.10;0.10;;;16.70;54.00;;;;;;5073490;28;20199;-59
2023/08/17 07:25:50;;;;;;;0.08;0.08;;;16.70;54.00;;;;;;5073993;28;20202;-59
2023/08/17 07:28:23;;;;;;;0.00;0.00;;;16.60;53.90;;;;;;5073126;28;20222;-59
2023/08/17 07:30:53;;;;;;;0.10;0.10;;;16.60;53.90;;;;;;5065803;28;20202;-59
2023/08/17 07:33:24;;;;;;;0.10;0.10;;;16.60;54.00;;;;;;5057798;28;20651;-59
2023/08/17 07:35:55;;;;;;;0.10;0.10;;;16.60;54.00;;;;;;5054400;28;20206;-59
2023/08/17 07:38:26;;;;;;;0.10;0.10;;;16.50;54.00;;;;;;5054052;28;20294;-59
2023/08/17 07:40:57;;;;;;;0.00;0.00;;;16.50;54.00;;;;;;5054157;28;20199;-59
2023/08/17 07:43:30;;;;;;;0.10;0.10;;;16.50;54.00;;;;;;5053681;28;20196;-59
2023/08/17 07:46:01;;;;;;;0.10;0.10;;;16.50;54.10;;;;;;5053893;28;20199;-60
2023/08/17 07:48:33;;;;;;;0.10;0.10;;;16.50;54.10;;;;;;5053879;28;20219;-60
2023/08/17 07:51:04;;;;;;;0.10;0.10;;;16.50;54.20;;;;;;5053119;28;20191;-60
2023/08/17 07:53:34;;;;;;;0.00;0.00;;;16.50;54.80;;;;;;5061713;28;20209;-60
2023/08/17 07:56:05;;;;;;;0.08;0.08;;;16.50;54.20;;;;;;5073428;28;20203;-60
2023/08/17 07:58:37;;;;;;;0.05;0.05;;;16.40;54.20;;;;;;5072810;28;20222;-60
2023/08/17 08:01:08;;;;;;;0.00;0.00;;;16.40;54.10;;;;;;5073492;28;20475;-60
2023/08/17 08:03:38;;;;;;;0.00;0.00;;;16.40;54.10;;;;;;5074088;28;20202;-60
2023/08/17 08:06:09;;;;;;;0.10;0.10;;;16.40;54.10;;;;;;5073839;28;20658;-59
2023/08/17 08:08:40;;;;;;;0.08;0.08;;;16.40;54.80;;;;;;5073314;28;20194;-59
2023/08/17 08:11:12;;;;;;;0.10;0.10;;;16.30;54.20;;;;;;5073513;28;20202;-59
2023/08/17 08:13:45;;;;;;;0.10;0.10;;;16.30;54.10;;;;;;5072720;28;20661;-60
2023/08/17 08:16:15;;;;;;;0.08;0.08;;;16.30;54.10;;;;;;5072579;28;20662;-59
2023/08/17 08:18:46;;;;;;;0.10;0.10;;;16.30;54.10;;;;;;5073508;28;20596;-59
2023/08/17 08:21:16;;;;;;;0.10;0.10;;;16.30;54.20;;;;;;5073625;28;20202;-59
2023/08/17 08:23:47;;;;;;;0.10;0.10;;;16.20;54.10;;;;;;5073266;28;20619;-60
2023/08/17 08:26:18;;;;;;;0.00;0.00;;;16.20;54.10;;;;;;5072693;28;20194;-60
2023/08/17 08:28:50;;;;;;;0.10;0.10;;;16.20;54.10;;;;;;5073066;28;20281;-60
2023/08/17 08:31:21;;;;;;;0.10;0.10;;;16.20;54.10;;;;;;5055114;28;20199;-60
2023/08/17 08:33:52;;;;;;;0.10;0.10;;;16.20;54.10;;;;;;5061780;28;20199;-59
2023/08/17 08:36:23;;;;;;;0.10;0.10;;;16.10;54.10;;;;;;5062638;28;20215;-59
2023/08/17 08:38:53;;;;;;;0.08;0.08;;;16.10;54.10;;;;;;5057188;28;20199;-59
2023/08/17 08:41:28;;;;;;;0.10;0.10;;;16.10;54.10;;;;;;5054105;28;20550;-59
2023/08/17 08:44:00;;;;;;;0.00;0.00;;;16.10;54.10;;;;;;5052354;28;20244;-59
2023/08/17 08:46:35;;;;;;;0.10;0.10;;;16.10;54.20;;;;;;5052280;28;20202;-59
2023/08/17 08:49:08;;;;;;;0.10;0.10;;;16.00;54.10;;;;;;5053464;28;20195;-59
2023/08/17 08:51:41;;;;;;;0.10;0.10;;;16.00;54.10;;;;;;5053481;28;20206;-59
2023/08/17 08:54:20;;;;;;;0.10;0.10;;;16.00;54.10;;;;;;5069175;28;20190;-59
2023/08/17 08:56:57;;;;;;;0.10;0.10;;;16.00;54.10;;;;;;5071460;28;20674;-59
2023/08/17 08:59:30;;;;;;;0.03;0.03;;;16.00;54.10;;;;;;5072263;28;20521;-59
2023/08/17 09:02:02;;;;;;;0.00;0.00;;;15.90;54.00;;;;;;5072684;28;20256;-59
2023/08/17 09:04:33;;;;;;;0.10;0.10;;;15.90;54.10;;;;;;5072512;28;20638;-59
2023/08/17 09:07:04;;;;;;;0.10;0.10;;;15.90;54.10;;;;;;5071581;28;20241;-59
2023/08/17 09:09:36;;;;;;;0.00;0.00;;;15.90;54.10;;;;;;5072101;28;20198;-59
2023/08/17 09:12:09;;;;;;;0.05;0.05;;;15.90;54.10;;;;;;5071492;28;20206;-60
2023/08/17 09:14:42;;;;;;;0.10;0.10;;;15.90;54.10;;;;;;5071619;28;20201;-59
2023/08/17 09:17:12;;;;;;;0.10;0.10;;;15.80;54.10;;;;;;5070921;28;20234;-59
2023/08/17 09:19:48;;;;;;;0.00;0.00;;;15.80;54.10;;;;;;5051809;28;20187;-59
2023/08/17 09:22:26;;;;;;;0.10;0.10;;;15.80;54.10;;;;;;5051350;28;20534;-59
2023/08/17 09:24:56;;;;;;;0.10;0.10;;;15.70;54.10;;;;;;5071020;28;20234;-59
2023/08/17 09:27:27;;;;;;;0.10;0.10;;;15.70;54.10;;;;;;5071351;28;20215;-59
2023/08/17 09:30:06;;;;;;;0.10;0.10;;;15.70;54.10;;;;;;5070712;28;20252;-59
2023/08/17 09:32:37;;;;;;;0.10;0.10;;;15.70;54.10;;;;;;5052089;28;20230;-58
2023/08/17 09:35:08;;;;;;;0.00;0.00;;;15.60;54.00;;;;;;5052141;28;20271;-59
2023/08/17 09:37:39;;;;;;;0.10;0.10;;;15.60;54.00;;;;;;5051793;28;20241;-59
2023/08/17 09:40:10;;;;;;;0.10;0.10;;;15.60;54.00;;;;;;5051899;28;20195;-59
2023/08/17 09:42:42;;;;;;;0.10;0.10;;;15.60;54.00;;;;;;5051399;28;20311;-59
2023/08/17 09:45:15;;;;;;;0.10;0.10;;;15.60;54.00;;;;;;5070922;28;20198;-59
2023/08/17 09:47:48;;;;;;;0.10;0.10;;;15.60;54.00;;;;;;5070333;28;20230;-59
2023/08/17 09:50:19;;;;;;;0.00;0.00;;;15.60;54.00;;;;;;5072243;28;20199;-58
2023/08/17 09:52:49;;;;;;;0.10;0.10;;;15.60;54.10;;;;;;5071472;28;20217;-59
2023/08/17 09:55:20;;;;;;;0.10;0.10;;;15.50;54.00;;;;;;5071248;28;20202;-59
2023/08/17 09:57:51;;;;;;;0.00;0.00;;;15.50;54.10;;;;;;5071055;28;20650;-59
2023/08/17 10:00:25;;;;;;;0.10;0.10;;;15.50;54.30;;;;;;5071133;28;20252;-59
2023/08/17 10:02:56;;;;;;;0.05;0.05;;;15.50;54.80;;;;;;5070971;28;20520;-59
2023/08/17 10:05:28;;;;;;;0.00;0.00;;;15.50;54.90;;;;;;5071696;28;20586;-59
2023/08/17 10:08:02;;;;;;;0.10;0.10;;;15.50;54.80;;;;;;5071800;28;21044;-59
2023/08/17 10:10:34;;;;;;;0.10;0.10;;;15.50;54.80;;;;;;5069560;28;20845;-59
2023/08/17 10:13:11;;;;;;;0.10;0.10;;;15.50;54.70;;;;;;5068749;28;20281;-59
2023/08/17 10:15:53;;;;;;;0.10;0.10;;;15.50;54.70;;;;;;5071527;28;20238;-59
2023/08/17 10:18:39;;;;;;;0.05;0.05;;;15.50;54.70;;;;;;5071276;28;20229;-59
2023/08/17 10:21:14;;;;;;;0.10;0.10;;;15.50;54.60;;;;;;5070738;28;20565;-59
2023/08/17 10:23:47;;;;;;;0.00;0.00;;;15.40;54.60;;;;;;5071185;28;20535;-59
2023/08/17 10:26:18;;;;;;;0.10;0.10;;;15.40;54.60;;;;;;5071558;28;20201;-59
2023/08/17 10:28:50;;;;;;;0.10;0.10;;;15.40;54.50;;;;;;5071005;28;20553;-59
2023/08/17 10:31:23;;;;;;;0.10;0.10;;;15.40;54.60;;;;;;5079122;28;20190;-60
2023/08/17 10:33:54;;;;;;;0.10;0.10;;;15.40;54.60;;;;;;5090865;28;20582;-59
2023/08/17 10:36:25;;;;;;;0.10;0.10;;;15.30;54.50;;;;;;5093974;28;20190;-59
2023/08/17 10:39:23;;;;;;;0.10;0.10;;;15.40;54.60;;;;;;5095441;28;20221;-59
2023/08/17 10:41:54;;;;;;;0.10;0.10;;;15.30;54.50;;;;;;5095197;28;20225;-59
2023/08/17 10:44:43;;;;;;;0.10;0.10;;;15.30;54.50;;;;;;5057537;28;20197;-59
2023/08/17 10:47:26;;;;;;;0.10;0.10;;;15.30;54.50;;;;;;5069425;28;20214;-59
2023/08/17 10:50:00;;;;;;;0.10;0.10;;;15.30;54.50;;;;;;5075059;28;20198;-59
2023/08/17 10:52:33;;;;;;;0.10;0.10;;;15.20;54.40;;;;;;5074669;28;20182;-59
2023/08/17 10:55:05;;;;;;;0.10;0.10;;;15.20;54.40;;;;;;5054296;28;20199;-59
2023/08/17 10:57:37;;;;;;;0.10;0.10;;;15.20;54.40;;;;;;5071146;28;20737;-59
2023/08/17 11:00:26;;;;;;;0.10;0.10;;;15.20;54.50;;;;;;5072859;28;20187;-59
2023/08/17 11:03:01;;;;;;;0.10;0.10;;;15.20;54.50;;;;;;5093904;28;20198;-59
2023/08/17 11:05:42;;;;;;;0.10;0.10;;;15.10;54.40;;;;;;5091539;28;20273;-59
2023/08/17 11:08:22;;;;;;;0.10;0.10;;;15.10;54.40;;;;;;5073939;28;20659;-59
2023/08/17 11:11:01;;;;;;;0.10;0.10;;;15.10;54.50;;;;;;5073073;28;20205;-59
2023/08/17 11:13:33;;;;;;;0.10;0.10;;;15.10;54.50;;;;;;5074310;28;20199;-59
2023/08/17 11:16:05;;;;;;;0.10;0.10;;;15.10;54.50;;;;;;5073645;28;20195;-59
2023/08/17 11:18:38;;;;;;;0.10;0.10;;;15.10;54.50;;;;;;5073921;28;20230;-59
2023/08/17 11:21:10;;;;;;;0.10;0.10;;;15.00;54.50;;;;;;5074245;28;20190;-59
2023/08/17 11:23:41;;;;;;;0.10;0.10;;;15.00;54.50;;;;;;5073642;28;20203;-59
2023/08/17 11:26:11;;;;;;;0.03;0.03;;;15.00;54.40;;;;;;5077250;28;20182;-59
2023/08/17 11:28:44;;;;;;;0.10;0.10;;;15.00;54.50;;;;;;5073182;28;20211;-59
2023/08/17 11:31:16;;;;;;;0.10;0.10;;;15.00;54.50;;;;;;5073808;28;20541;-59
2023/08/17 11:33:50;;;;;;;0.10;0.10;;;15.00;54.50;;;;;;5073967;28;20282;-59
2023/08/17 11:36:21;;;;;;;0.10;0.10;;;14.90;54.40;;;;;;5073012;28;20345;-59
2023/08/17 11:38:52;;;;;;;0.10;0.10;;;14.90;54.40;;;;;;5073988;28;20227;-59
2023/08/17 11:41:23;;;;;;;0.10;0.10;;;14.90;54.40;;;;;;5073483;28;20245;-59
2023/08/17 11:43:55;;;;;;;0.08;0.08;;;14.90;54.40;;;;;;5074209;28;20195;-59
2023/08/17 11:46:25;;;;;;;0.00;0.00;;;14.90;54.40;;;;;;5073355;28;20199;-59
2023/08/17 11:49:00;;;;;;;0.10;0.10;;;14.90;54.40;;;;;;5074185;28;20198;-59
2023/08/17 11:51:34;;;;;;;0.10;0.10;;;14.80;54.40;;;;;;5074710;28;20187;-60
2023/08/17 11:54:07;;;;;;;0.10;0.10;;;14.80;54.40;;;;;;5072848;28;20667;-59
2023/08/17 11:56:39;;;;;;;0.10;0.10;;;14.80;54.40;;;;;;5079532;28;20210;-59
2023/08/17 11:59:18;;;;;;;0.10;0.10;;;14.80;54.30;;;;;;5092866;28;20263;-59
2023/08/17 12:01:51;;;;;;;0.10;0.10;;;14.80;54.40;;;;;;5093083;28;20186;-59
2023/08/17 12:04:25;;;;;;;0.10;0.10;;;14.80;54.30;;;;;;5076748;28;20194;-59
2023/08/17 12:06:56;;;;;;;0.10;0.10;;;14.80;54.40;;;;;;5073004;28;20225;-59
2023/08/17 12:09:27;;;;;;;0.10;0.10;;;14.70;54.30;;;;;;5073604;28;20226;-59
2023/08/17 12:12:03;;;;;;;0.00;0.00;;;14.70;54.30;;;;;;5073968;28;20665;-59
2023/08/17 12:14:35;;;;;;;0.00;0.00;;;14.70;54.30;;;;;;5073876;28;20199;-59
2023/08/17 12:17:06;;;;;;;0.10;0.10;;;14.70;54.30;;;;;;5073260;28;20756;-59
2023/08/17 12:19:38;;;;;;;0.10;0.10;;;14.70;54.30;;;;;;5073822;28;20237;-59
2023/08/17 12:22:09;;;;;;;0.10;0.10;;;14.60;54.30;;;;;;5073764;28;20202;-59
2023/08/17 12:24:40;;;;;;;0.10;0.10;;;14.60;54.20;;;;;;5073773;28;20194;-59
2023/08/17 12:27:11;;;;;;;0.10;0.10;;;14.60;54.20;;;;;;5073744;28;20223;-59
2023/08/17 12:29:50;;;;;;;0.10;0.10;;;14.60;54.30;;;;;;5073598;28;20201;-59
2023/08/17 12:32:22;;;;;;;0.10;0.10;;;14.50;54.20;;;;;;5073317;28;20191;-59
2023/08/17 12:34:55;;;;;;;0.00;0.00;;;14.50;54.20;;;;;;5073205;28;20202;-59
2023/08/17 12:37:25;;;;;;;0.10;0.10;;;14.50;54.20;;;;;;5073036;28;20686;-59
2023/08/17 12:39:56;;;;;;;0.10;0.10;;;14.50;54.20;;;;;;5073341;28;20195;-59
2023/08/17 12:42:26;;;;;;;0.10;0.10;;;14.50;54.20;;;;;;5073718;28;20191;-59
2023/08/17 12:44:57;;;;;;;0.10;0.10;;;14.50;54.20;;;;;;5073480;28;20217;-59
2023/08/17 12:47:28;;;;;;;0.10;0.10;;;14.40;54.10;;;;;;5073184;28;20264;-59
2023/08/17 12:50:00;;;;;;;0.10;0.10;;;14.40;54.10;;;;;;5060320;28;20195;-59
2023/08/17 12:52:31;;;;;;;0.10;0.10;;;14.40;54.20;;;;;;5073520;28;20194;-59
2023/08/17 12:55:02;;;;;;;0.10;0.10;;;14.40;54.10;;;;;;5053168;28;20203;-59
2023/08/17 12:57:33;;;;;;;0.10;0.10;;;14.40;54.10;;;;;;5053386;28;20224;-59
2023/08/17 13:00:03;;;;;;;0.10;0.10;;;14.40;54.10;;;;;;5052903;28;20202;-59
2023/08/17 13:02:34;;;;;;;0.10;0.10;;;14.30;54.10;;;;;;5053407;28;20207;-59
2023/08/17 13:05:07;;;;;;;0.10;0.10;;;14.30;54.10;;;;;;5066354;28;20194;-59
2023/08/17 13:07:37;;;;;;;0.10;0.10;;;14.30;54.10;;;;;;5072553;28;20207;-59
2023/08/17 13:10:08;;;;;;;0.10;0.10;;;14.20;54.10;;;;;;5072659;28;20199;-59
2023/08/17 13:12:39;;;;;;;0.10;0.10;;;14.20;54.10;;;;;;5072476;28;20206;-59